createdAt,value
2018-02-08T00:00:26.788Z,40.30
2018-02-08T00:02:55.199Z,40.20
2018-02-08T00:05:22.671Z,40.20
2018-02-08T00:07:50.619Z,40.10
2018-02-08T00:10:18.047Z,39.90
2018-02-08T00:12:45.520Z,40.00
2018-02-08T00:15:13.095Z,40.00
2018-02-08T00:17:40.551Z,39.90
2018-02-08T00:20:08.019Z,40.20
2018-02-08T00:22:45.135Z,40.40
2018-02-08T00:25:12.648Z,40.40
2018-02-08T00:27:40.115Z,40.10
2018-02-08T00:30:07.579Z,40.20
2018-02-08T00:32:35.028Z,40.20
2018-02-08T00:35:02.606Z,40.20
2018-02-08T00:37:30.035Z,40.20
2018-02-08T00:39:57.496Z,40.50
2018-02-08T00:42:24.950Z,40.10
2018-02-08T00:44:52.381Z,40.30
2018-02-08T00:47:19.862Z,39.80
2018-02-08T00:49:47.323Z,39.40
2018-02-08T00:52:14.949Z,39.20
2018-02-08T00:54:42.443Z,39.20
2018-02-08T00:57:09.994Z,39.20
2018-02-08T00:59:37.453Z,39.20
2018-02-08T01:02:04.876Z,39.20
2018-02-08T01:04:32.357Z,39.10
2018-02-08T01:06:59.817Z,39.20
2018-02-08T01:09:27.235Z,39.20
2018-02-08T01:11:54.736Z,39.20
2018-02-08T01:14:22.174Z,39.20
2018-02-08T01:16:49.599Z,39.20
2018-02-08T01:19:17.100Z,39.20
2018-02-08T01:21:45.476Z,39.30
2018-02-08T01:24:13.108Z,39.20
2018-02-08T01:26:40.709Z,39.20
2018-02-08T01:29:08.460Z,39.20
2018-02-08T01:31:36.098Z,39.50
2018-02-08T01:34:03.584Z,39.50
2018-02-08T01:36:31.126Z,39.30
2018-02-08T01:38:58.628Z,39.50
2018-02-08T01:41:26.072Z,39.40
2018-02-08T01:43:53.501Z,39.20
2018-02-08T01:46:20.955Z,39.30
2018-02-08T01:48:48.411Z,39.10
2018-02-08T01:51:15.868Z,39.10
2018-02-08T01:53:43.305Z,39.10
2018-02-08T01:56:10.779Z,39.10
2018-02-08T01:58:38.184Z,39.10
2018-02-08T02:01:05.692Z,39.10
2018-02-08T02:03:33.156Z,39.40
2018-02-08T02:06:00.607Z,39.10
2018-02-08T02:08:28.035Z,39.20
2018-02-08T02:10:56.439Z,39.10
2018-02-08T02:13:23.885Z,39.10
2018-02-08T02:15:51.359Z,39.10
2018-02-08T02:18:18.776Z,39.10
2018-02-08T02:20:46.211Z,39.10
2018-02-08T02:23:14.544Z,39.10
2018-02-08T02:25:41.988Z,39.10
2018-02-08T02:28:09.419Z,39.10
2018-02-08T02:30:36.892Z,39.10
2018-02-08T02:33:04.528Z,39.10
2018-02-08T02:35:31.939Z,39.10
2018-02-08T02:37:59.383Z,39.10
2018-02-08T02:40:26.835Z,39.10
2018-02-08T02:42:54.284Z,39.10
2018-02-08T02:45:21.748Z,39.20
2018-02-08T02:47:49.177Z,39.30
2018-02-08T02:50:17.576Z,39.10
2018-02-08T02:52:45.039Z,39.20
2018-02-08T02:55:12.463Z,39.50
2018-02-08T02:57:39.892Z,39.70
2018-02-08T03:00:07.320Z,39.70
2018-02-08T03:02:34.944Z,40.00
2018-02-08T03:05:02.516Z,39.70
2018-02-08T03:07:29.948Z,39.90
2018-02-08T03:09:57.561Z,40.00
2018-02-08T03:12:25.199Z,39.90
2018-02-08T03:14:52.765Z,39.80
2018-02-08T03:17:20.533Z,39.90
2018-02-08T03:19:47.960Z,39.70
2018-02-08T03:22:15.391Z,39.80
2018-02-08T03:24:42.815Z,39.80
2018-02-08T03:27:10.298Z,40.00
2018-02-08T03:29:37.726Z,39.90
2018-02-08T03:32:05.171Z,39.70
2018-02-08T03:34:32.594Z,39.70
2018-02-08T03:37:00.175Z,39.80
2018-02-08T03:39:27.927Z,39.90
2018-02-08T03:41:55.359Z,40.00
2018-02-08T03:44:22.789Z,39.90
2018-02-08T03:46:50.312Z,40.00
2018-02-08T03:49:17.950Z,40.30
2018-02-08T03:51:45.375Z,40.20
2018-02-08T03:54:13.568Z,40.30
2018-02-08T03:56:41.051Z,40.30
2018-02-08T03:59:08.480Z,40.40
2018-02-08T04:01:35.919Z,40.40
2018-02-08T04:04:03.349Z,40.50
2018-02-08T04:06:30.794Z,40.40
2018-02-08T04:08:58.339Z,39.90
2018-02-08T04:11:25.796Z,39.70
2018-02-08T04:13:53.567Z,39.40
2018-02-08T04:16:21.094Z,39.20
2018-02-08T04:18:48.645Z,39.20
2018-02-08T04:21:16.226Z,39.50
2018-02-08T04:23:43.688Z,39.40
2018-02-08T04:26:11.364Z,39.30
2018-02-08T04:28:38.799Z,39.10
2018-02-08T04:31:06.295Z,39.60
2018-02-08T04:33:33.820Z,39.70
2018-02-08T04:36:01.456Z,39.60
2018-02-08T04:38:40.717Z,39.20
2018-02-08T04:41:20.147Z,39.00
2018-02-08T04:43:59.201Z,39.00
2018-02-08T04:46:38.742Z,39.00
2018-02-08T04:49:06.348Z,39.00
2018-02-08T04:51:33.771Z,39.00
2018-02-08T04:54:01.196Z,39.00
2018-02-08T04:56:28.818Z,39.70
2018-02-08T04:58:56.244Z,39.00
2018-02-08T05:01:23.772Z,39.00
2018-02-08T05:03:51.224Z,39.00
2018-02-08T05:06:18.983Z,39.00
2018-02-08T05:08:46.410Z,38.80
2018-02-08T05:11:13.831Z,39.00
2018-02-08T05:13:41.360Z,39.00
2018-02-08T05:16:08.805Z,39.00
2018-02-08T05:18:36.243Z,39.00
2018-02-08T05:21:03.676Z,39.00
2018-02-08T05:23:31.174Z,39.00
2018-02-08T05:25:58.938Z,38.80
2018-02-08T05:28:26.382Z,38.90
2018-02-08T05:30:53.815Z,38.70
2018-02-08T05:33:21.259Z,38.60
2018-02-08T05:35:48.743Z,38.70
2018-02-08T05:38:16.200Z,38.90
2018-02-08T05:40:43.607Z,38.70
2018-02-08T05:43:11.128Z,38.60
2018-02-08T05:45:38.552Z,39.00
2018-02-08T05:48:05.984Z,38.50
2018-02-08T05:50:33.495Z,38.80
2018-02-08T05:53:00.948Z,38.60
2018-02-08T05:55:28.363Z,38.80
2018-02-08T05:57:55.793Z,38.50
2018-02-08T06:00:23.269Z,38.40
2018-02-08T06:02:50.732Z,38.80
2018-02-08T06:05:18.163Z,39.00
2018-02-08T06:07:45.692Z,39.00
2018-02-08T06:10:13.116Z,38.90
2018-02-08T06:12:40.644Z,38.90
2018-02-08T06:15:08.363Z,38.90
2018-02-08T06:17:35.799Z,38.90
2018-02-08T06:20:03.304Z,38.90
2018-02-08T06:22:30.928Z,38.90
2018-02-08T06:24:58.439Z,39.00
2018-02-08T06:27:25.959Z,38.90
2018-02-08T06:29:53.495Z,39.00
2018-02-08T06:32:20.971Z,39.20
2018-02-08T06:34:48.647Z,39.50
2018-02-08T06:37:16.107Z,39.50
2018-02-08T06:39:43.848Z,39.50
2018-02-08T06:42:11.281Z,39.50
2018-02-08T06:44:38.784Z,39.70
2018-02-08T06:47:06.212Z,39.70
2018-02-08T06:49:33.651Z,39.70
2018-02-08T06:52:01.101Z,39.50
2018-02-08T06:54:28.523Z,39.70
2018-02-08T06:56:55.954Z,39.70
2018-02-08T06:59:23.508Z,39.80
2018-02-08T07:01:50.958Z,39.90
2018-02-08T07:04:18.392Z,40.00
2018-02-08T07:06:45.820Z,40.00
2018-02-08T07:09:13.259Z,39.90
2018-02-08T07:11:40.783Z,40.10
2018-02-08T07:14:08.547Z,40.00
2018-02-08T07:16:36.073Z,40.00
2018-02-08T07:19:03.653Z,40.10
2018-02-08T07:21:31.092Z,39.80
2018-02-08T07:23:58.509Z,40.00
2018-02-08T07:26:26.129Z,40.10
2018-02-08T07:28:53.548Z,40.00
2018-02-08T07:31:20.979Z,40.10
2018-02-08T07:33:48.408Z,40.20
2018-02-08T07:36:15.975Z,40.00
2018-02-08T07:38:43.405Z,40.30
2018-02-08T07:41:10.892Z,40.30
2018-02-08T07:43:38.331Z,40.00
2018-02-08T07:46:05.795Z,39.70
2018-02-08T07:48:33.547Z,39.70
2018-02-08T07:51:00.995Z,39.80
2018-02-08T07:53:28.415Z,39.50
2018-02-08T07:55:55.922Z,39.20
2018-02-08T07:58:23.343Z,38.60
2018-02-08T08:00:50.772Z,38.70
2018-02-08T08:03:18.199Z,38.60
2018-02-08T08:05:45.653Z,38.10
2018-02-08T08:08:13.079Z,37.70
2018-02-08T08:10:40.511Z,37.30
2018-02-08T08:13:08.744Z,36.80
2018-02-08T08:15:36.168Z,36.80
2018-02-08T08:18:03.644Z,36.70
2018-02-08T08:20:31.089Z,36.50
2018-02-08T08:22:58.555Z,36.20
2018-02-08T08:25:26.084Z,36.00
2018-02-08T08:27:53.684Z,36.10
2018-02-08T08:30:21.136Z,36.00
2018-02-08T08:32:48.583Z,35.60
2018-02-08T08:35:16.041Z,35.10
2018-02-08T08:37:43.600Z,34.90
2018-02-08T08:40:11.063Z,35.00
2018-02-08T08:42:38.507Z,35.00
2018-02-08T08:45:05.938Z,34.80
2018-02-08T08:47:33.427Z,34.40
2018-02-08T08:50:00.871Z,34.10
2018-02-08T08:52:28.306Z,34.30
2018-02-08T08:54:55.792Z,34.30
2018-02-08T08:57:23.243Z,33.90
2018-02-08T08:59:50.664Z,33.70
2018-02-08T09:02:18.092Z,33.90
2018-02-08T09:04:45.528Z,33.60
2018-02-08T09:07:12.979Z,33.90
2018-02-08T09:09:40.444Z,33.60
2018-02-08T09:12:07.968Z,32.80
2018-02-08T09:14:35.418Z,32.40
2018-02-08T09:17:03.061Z,32.50
2018-02-08T09:19:31.296Z,31.80
2018-02-08T09:21:58.912Z,31.70
2018-02-08T09:24:26.387Z,31.80
2018-02-08T09:26:53.954Z,30.60
2018-02-08T09:29:21.379Z,30.00
2018-02-08T09:31:48.803Z,29.80
2018-02-08T09:34:16.236Z,29.50
2018-02-08T09:36:43.749Z,29.40
2018-02-08T09:39:11.168Z,29.30
2018-02-08T09:41:38.618Z,28.70
2018-02-08T09:44:06.149Z,27.70
2018-02-08T09:46:33.576Z,26.20
2018-02-08T09:49:01.003Z,27.00
2018-02-08T09:51:28.440Z,27.20
2018-02-08T09:53:55.969Z,26.70
2018-02-08T09:56:23.421Z,25.40
2018-02-08T09:58:50.895Z,25.90
2018-02-08T10:01:18.648Z,24.40
2018-02-08T10:03:46.099Z,24.60
2018-02-08T10:06:13.546Z,24.50
2018-02-08T10:08:41.026Z,24.60
2018-02-08T10:11:08.473Z,24.00
2018-02-08T10:13:35.922Z,24.40
2018-02-08T10:16:03.360Z,23.60
2018-02-08T10:18:30.843Z,24.50
2018-02-08T10:20:58.284Z,24.00
2018-02-08T10:23:25.752Z,24.50
2018-02-08T10:25:53.202Z,24.50
2018-02-08T10:28:20.634Z,24.60
2018-02-08T10:30:48.156Z,23.50
2018-02-08T10:33:15.579Z,24.60
2018-02-08T10:35:43.316Z,24.50
2018-02-08T10:38:10.803Z,24.40
2018-02-08T10:40:38.335Z,24.10
2018-02-08T10:43:06.000Z,23.10
2018-02-08T10:45:33.471Z,22.80
2018-02-08T10:48:01.155Z,23.80
2018-02-08T10:50:28.692Z,23.20
2018-02-08T10:52:56.507Z,23.30
2018-02-08T10:55:23.935Z,22.80
2018-02-08T10:57:51.436Z,22.30
2018-02-08T11:00:18.826Z,21.70
2018-02-08T11:02:46.271Z,21.50
2018-02-08T11:05:13.735Z,21.10
2018-02-08T11:07:41.174Z,20.90
2018-02-08T11:10:08.596Z,20.40
2018-02-08T11:12:36.115Z,20.30
2018-02-08T11:15:03.555Z,19.50
2018-02-08T11:17:31.322Z,19.90
2018-02-08T11:19:58.839Z,18.10
2018-02-08T11:22:26.463Z,18.40
2018-02-08T11:24:53.888Z,18.80
2018-02-08T11:27:21.657Z,19.20
2018-02-08T11:29:49.113Z,17.60
2018-02-08T11:32:16.615Z,18.80
2018-02-08T11:34:44.124Z,17.20
2018-02-08T11:37:11.591Z,17.70
2018-02-08T11:39:39.236Z,17.80
2018-02-08T11:42:06.795Z,18.10
2018-02-08T11:44:34.268Z,19.20
2018-02-08T11:47:03.322Z,17.10
2018-02-08T11:49:31.964Z,17.70
2018-02-08T11:51:59.897Z,17.40
2018-02-08T11:54:29.215Z,16.90
2018-02-08T11:56:56.777Z,16.90
2018-02-08T11:59:24.229Z,16.60
2018-02-08T12:01:51.858Z,15.00
2018-02-08T12:04:19.307Z,13.90
2018-02-08T12:06:46.903Z,14.70
2018-02-08T12:09:14.332Z,13.30
2018-02-08T12:11:41.772Z,15.70
2018-02-08T12:14:09.202Z,15.20
2018-02-08T12:16:36.641Z,12.40
2018-02-08T12:19:04.183Z,13.80
2018-02-08T12:21:31.612Z,12.60
2018-02-08T12:23:59.175Z,12.00
2018-02-08T12:26:26.859Z,11.40
2018-02-08T12:28:54.283Z,12.60
2018-02-08T12:31:21.770Z,12.90
2018-02-08T12:33:49.229Z,14.00
2018-02-08T12:36:17.604Z,11.60
2018-02-08T12:38:45.047Z,11.60
2018-02-08T12:41:12.521Z,11.10
2018-02-08T12:43:39.952Z,11.90
2018-02-08T12:46:07.433Z,11.60
2018-02-08T12:48:34.883Z,12.20
2018-02-08T12:51:02.348Z,10.00
2018-02-08T12:53:29.783Z,12.40
2018-02-08T12:55:57.202Z,12.30
2018-02-08T12:58:24.631Z,12.40
2018-02-08T13:00:52.072Z,12.30
2018-02-08T13:03:19.541Z,12.40
2018-02-08T13:05:47.084Z,10.90
2018-02-08T13:08:14.738Z,10.70
2018-02-08T13:10:42.184Z,10.70
2018-02-08T13:13:10.371Z,8.30
2018-02-08T13:15:37.804Z,8.30
2018-02-08T13:18:05.228Z,9.50
2018-02-08T13:20:32.690Z,10.60
2018-02-08T13:23:00.107Z,10.50
2018-02-08T13:25:27.688Z,10.30
2018-02-08T13:27:56.636Z,7.10
2018-02-08T13:30:24.100Z,7.00
2018-02-08T13:32:51.603Z,5.50
2018-02-08T13:35:19.060Z,5.60
2018-02-08T13:37:47.990Z,2.60
2018-02-08T13:40:17.198Z,2.60
2018-02-08T13:42:44.637Z,2.40
2018-02-08T13:45:12.127Z,2.70
2018-02-08T13:47:45.159Z,2.70
2018-02-08T13:50:18.287Z,1.40
2018-02-08T13:52:51.332Z,1.00
2018-02-08T13:58:33.548Z,1.00
2018-02-08T14:04:04.140Z,1.00
2018-02-08T14:06:31.565Z,1.00
2018-02-08T14:08:59.780Z,1.00
2018-02-08T14:11:27.198Z,1.00
2018-02-08T14:13:54.635Z,1.00
2018-02-08T14:16:22.151Z,1.00
2018-02-08T14:18:49.911Z,1.00
2018-02-08T14:21:17.371Z,1.00
2018-02-08T14:23:44.857Z,1.00
2018-02-08T14:26:12.471Z,1.00
2018-02-08T14:28:39.948Z,1.00
2018-02-08T14:31:07.503Z,1.00
2018-02-08T14:33:34.966Z,1.00
2018-02-08T14:36:02.719Z,1.00
2018-02-08T14:38:30.181Z,1.00
2018-02-08T14:40:57.627Z,1.00
2018-02-08T14:43:25.051Z,1.00
2018-02-08T14:45:52.571Z,1.00
2018-02-08T14:48:19.994Z,1.00
2018-02-08T14:50:47.455Z,1.40
2018-02-08T14:53:14.886Z,2.00
2018-02-08T14:55:42.375Z,3.30
2018-02-08T14:58:09.806Z,3.60
2018-02-08T15:00:37.488Z,4.60
2018-02-08T15:03:04.917Z,6.40
2018-02-08T15:05:32.498Z,6.60
2018-02-08T15:08:00.068Z,7.60
2018-02-08T15:10:27.497Z,8.80
2018-02-08T15:12:55.133Z,9.60
2018-02-08T15:15:22.559Z,9.80
2018-02-08T15:17:50.048Z,10.00
2018-02-08T15:20:17.543Z,10.50
2018-02-08T15:22:45.081Z,11.30
2018-02-08T15:25:12.657Z,11.60
2018-02-08T15:27:40.227Z,11.60
2018-02-08T15:30:07.923Z,12.30
2018-02-08T15:32:35.439Z,12.90
2018-02-08T15:35:02.880Z,13.20
2018-02-08T15:37:30.318Z,14.10
2018-02-08T15:39:57.813Z,14.80
2018-02-08T15:42:25.256Z,14.80
2018-02-08T15:44:52.671Z,14.90
2018-02-08T15:47:20.111Z,15.20
2018-02-08T15:49:48.314Z,16.50
2018-02-08T15:52:16.011Z,16.40
2018-02-08T15:54:43.787Z,17.40
2018-02-08T15:57:11.411Z,18.10
2018-02-08T15:59:38.904Z,18.50
2018-02-08T16:02:06.340Z,18.00
2018-02-08T16:04:33.848Z,17.90
2018-02-08T16:07:01.287Z,18.30
2018-02-08T16:09:28.835Z,18.60
2018-02-08T16:11:56.287Z,18.60
2018-02-08T16:14:23.923Z,19.10
2018-02-08T16:16:51.359Z,19.80
2018-02-08T16:19:18.809Z,20.40
2018-02-08T16:21:47.004Z,20.80
2018-02-08T16:24:14.487Z,20.70
2018-02-08T16:26:42.115Z,20.70
2018-02-08T16:29:09.699Z,21.10
2018-02-08T16:31:37.131Z,21.30
2018-02-08T16:34:04.576Z,22.00
2018-02-08T16:36:32.068Z,21.90
2018-02-08T16:38:59.536Z,22.40
2018-02-08T16:41:26.983Z,22.80
2018-02-08T16:43:54.627Z,23.40
2018-02-08T16:46:22.139Z,23.60
2018-02-08T16:48:49.570Z,24.20
2018-02-08T16:51:17.115Z,24.20
2018-02-08T16:53:44.875Z,24.20
2018-02-08T16:56:12.536Z,24.20
2018-02-08T16:58:39.956Z,24.60
2018-02-08T17:01:08.153Z,24.80
2018-02-08T17:03:35.577Z,24.80
2018-02-08T17:06:03.087Z,25.00
2018-02-08T17:08:30.536Z,25.10
2018-02-08T17:10:57.972Z,25.50
2018-02-08T17:13:25.400Z,25.30
2018-02-08T17:15:52.924Z,25.50
2018-02-08T17:18:20.375Z,25.30
2018-02-08T17:20:47.827Z,25.30
2018-02-08T17:23:15.468Z,25.90
2018-02-08T17:25:42.895Z,25.70
2018-02-08T17:28:11.127Z,26.90
2018-02-08T17:30:38.771Z,26.90
2018-02-08T17:33:06.347Z,27.40
2018-02-08T17:35:33.805Z,27.50
2018-02-08T17:38:01.436Z,27.50
2018-02-08T17:40:28.907Z,27.30
2018-02-08T17:42:56.466Z,28.50
2018-02-08T17:45:23.919Z,29.30
2018-02-08T17:47:51.358Z,29.80
2018-02-08T17:50:18.865Z,29.90
2018-02-08T17:52:46.300Z,30.20
2018-02-08T17:55:13.778Z,29.90
2018-02-08T17:57:41.388Z,29.60
2018-02-08T18:00:08.827Z,29.60
2018-02-08T18:02:36.335Z,30.00
2018-02-08T18:05:03.767Z,30.70
2018-02-08T18:07:31.203Z,32.40
2018-02-08T18:09:58.175Z,32.50
2018-02-08T18:12:25.559Z,32.10
2018-02-08T18:14:52.540Z,32.70
2018-02-08T18:17:19.860Z,32.70
2018-02-08T18:19:46.893Z,32.20
2018-02-08T18:22:14.273Z,31.80
2018-02-08T18:24:41.986Z,32.40
2018-02-08T18:27:09.485Z,31.00
2018-02-08T18:29:37.208Z,31.00
2018-02-08T18:32:04.636Z,30.90
2018-02-08T18:34:32.070Z,31.40
2018-02-08T18:36:59.063Z,31.10
2018-02-08T18:39:26.338Z,31.30
2018-02-08T18:41:53.311Z,32.20
2018-02-08T18:44:20.301Z,32.20
2018-02-08T18:46:47.272Z,32.20
2018-02-08T18:49:14.260Z,32.10
2018-02-08T18:51:42.012Z,32.60
2018-02-08T18:54:09.251Z,32.50
2018-02-08T18:56:37.346Z,33.40
2018-02-08T18:59:04.451Z,32.60
2018-02-08T19:01:32.644Z,32.80
2018-02-08T19:03:59.651Z,33.50
2018-02-08T19:06:26.627Z,35.10
2018-02-08T19:08:53.672Z,35.20
2018-02-08T19:11:20.810Z,35.80
2018-02-08T19:13:47.783Z,36.20
2018-02-08T19:16:14.910Z,36.00
2018-02-08T19:18:42.964Z,36.70
2018-02-08T19:21:10.124Z,36.60
2018-02-08T19:23:37.317Z,36.60
2018-02-08T19:26:04.318Z,36.80
2018-02-08T19:28:31.286Z,37.10
2018-02-08T19:30:58.418Z,36.50
2018-02-08T19:33:25.411Z,36.60
2018-02-08T19:35:53.358Z,37.30
2018-02-08T19:38:20.453Z,37.30
2018-02-08T19:40:47.409Z,37.60
2018-02-08T19:43:14.679Z,38.60
2018-02-08T19:45:41.651Z,38.50
2018-02-08T19:48:08.667Z,38.50
2018-02-08T19:50:35.638Z,38.80
2018-02-08T19:53:02.651Z,39.20
2018-02-08T19:55:29.631Z,40.00
2018-02-08T19:57:57.065Z,40.40
2018-02-08T20:00:24.514Z,40.50
2018-02-08T20:02:51.982Z,40.50
2018-02-08T20:05:19.708Z,40.30
2018-02-08T20:07:47.167Z,40.40
2018-02-08T20:10:14.626Z,40.40
2018-02-08T20:12:42.975Z,40.90
2018-02-08T20:15:11.071Z,40.60
2018-02-08T20:17:38.532Z,40.40
2018-02-08T20:20:06.299Z,40.80
2018-02-08T20:22:33.751Z,40.50
2018-02-08T20:25:01.219Z,40.30
2018-02-08T20:27:28.789Z,40.30
2018-02-08T20:29:56.322Z,41.00
2018-02-08T20:32:23.821Z,41.30
2018-02-08T20:34:51.255Z,41.30
2018-02-08T20:37:18.694Z,41.70
2018-02-08T20:39:46.252Z,41.40
2018-02-08T20:45:12.862Z,40.50
2018-02-08T20:47:40.470Z,40.70
2018-02-08T20:50:07.908Z,40.40
2018-02-08T20:52:35.480Z,40.50
2018-02-08T20:55:02.917Z,40.20
2018-02-08T20:57:30.339Z,40.40
2018-02-08T20:59:57.839Z,40.50
2018-02-08T21:02:25.259Z,40.60
2018-02-08T21:04:52.764Z,40.70
2018-02-08T21:07:20.190Z,40.60
2018-02-08T21:09:47.622Z,40.70
2018-02-08T21:12:15.061Z,40.60
2018-02-08T21:14:42.595Z,40.20
2018-02-08T21:17:10.020Z,40.00
2018-02-08T21:19:37.695Z,40.20
2018-02-08T21:22:05.123Z,40.20
2018-02-08T21:24:32.647Z,40.60
2018-02-08T21:27:01.096Z,39.60
2018-02-08T21:29:28.737Z,39.60
2018-02-08T21:31:56.322Z,40.60
2018-02-08T21:34:24.392Z,39.90
2018-02-08T21:36:52.023Z,39.70
2018-02-08T21:39:19.618Z,40.00
2018-02-08T21:41:47.249Z,39.90
2018-02-08T21:44:15.437Z,39.80
2018-02-08T21:46:42.919Z,39.80
2018-02-08T21:49:10.565Z,39.70
2018-02-08T21:51:38.009Z,39.50
2018-02-08T21:54:05.584Z,39.60
2018-02-08T21:56:33.335Z,39.50
2018-02-08T21:59:00.790Z,39.30
2018-02-08T22:01:28.259Z,39.40
2018-02-08T22:03:55.704Z,39.50
2018-02-08T22:06:23.384Z,39.60
2018-02-08T22:08:50.927Z,40.00
2018-02-08T22:11:18.404Z,39.80
2018-02-08T22:13:46.011Z,39.80
2018-02-08T22:16:13.531Z,40.00
2018-02-08T22:18:41.136Z,39.10
2018-02-08T22:21:08.818Z,39.10
2018-02-08T22:23:36.247Z,39.10
2018-02-08T22:26:03.676Z,38.90
2018-02-08T22:28:31.108Z,38.80
2018-02-08T22:30:58.646Z,38.60
2018-02-08T22:33:26.150Z,38.40
2018-02-08T22:35:53.675Z,38.40
2018-02-08T22:38:21.106Z,38.60
2018-02-08T22:40:48.779Z,38.70
2018-02-08T22:43:16.540Z,39.20
2018-02-08T22:45:44.002Z,38.80
2018-02-08T22:48:11.457Z,39.20
2018-02-08T22:50:39.080Z,38.90
2018-02-08T22:53:06.583Z,38.80
2018-02-08T22:55:34.027Z,39.10
2018-02-08T22:58:01.483Z,39.30
2018-02-08T23:00:28.903Z,39.10
2018-02-08T23:02:56.639Z,39.20
2018-02-08T23:05:24.127Z,39.70
2018-02-08T23:07:51.739Z,40.00
2018-02-08T23:10:19.366Z,39.50
2018-02-08T23:12:46.832Z,39.80
2018-02-08T23:15:14.303Z,39.90
2018-02-08T23:17:41.760Z,39.70
2018-02-08T23:20:09.308Z,39.10
2018-02-08T23:22:36.768Z,39.40
2018-02-08T23:25:04.222Z,39.00
2018-02-08T23:27:31.666Z,38.70
2018-02-08T23:29:59.088Z,38.80
2018-02-08T23:32:26.583Z,38.80
2018-02-08T23:34:54.024Z,39.20
2018-02-08T23:37:21.539Z,39.30
2018-02-08T23:39:49.270Z,39.30
2018-02-08T23:42:16.687Z,39.50
2018-02-08T23:44:44.154Z,39.50
2018-02-08T23:47:12.467Z,39.30
2018-02-08T23:49:39.923Z,39.30
2018-02-08T23:52:07.376Z,39.30
2018-02-08T23:54:34.925Z,38.80
2018-02-08T23:57:02.555Z,38.90
2018-02-08T23:59:30.764Z,39.00
